createdAt,value
2018-05-04T00:02:01.499Z,7.30
2018-05-04T00:04:28.548Z,12.77
2018-05-04T00:06:55.602Z,13.63
2018-05-04T00:09:23.463Z,10.97
2018-05-04T00:11:50.518Z,7.77
2018-05-04T00:14:17.559Z,10.47
2018-05-04T00:16:44.610Z,15.93
2018-05-04T00:19:11.694Z,15.53
2018-05-04T00:21:39.628Z,13.90
2018-05-04T00:24:06.677Z,18.77
2018-05-04T00:26:33.729Z,15.57
2018-05-04T00:29:00.837Z,12.13
2018-05-04T00:31:27.924Z,16.87
2018-05-04T00:33:54.971Z,12.10
2018-05-04T00:36:22.028Z,16.30
2018-05-04T00:38:49.075Z,12.97
2018-05-04T00:41:16.527Z,11.07
2018-05-04T00:43:43.578Z,14.47
2018-05-04T00:46:10.632Z,16.00
2018-05-04T00:48:37.642Z,10.43
2018-05-04T00:51:04.723Z,11.00
2018-05-04T00:53:31.777Z,16.20
2018-05-04T00:55:58.824Z,9.03
2018-05-04T00:58:25.868Z,13.90
2018-05-04T01:00:54.045Z,14.03
2018-05-04T01:03:21.812Z,12.27
2018-05-04T01:05:48.962Z,14.23
2018-05-04T01:08:16.009Z,11.17
2018-05-04T01:10:43.062Z,9.17
2018-05-04T01:13:10.999Z,8.80
2018-05-04T01:15:38.084Z,13.30
2018-05-04T01:18:05.132Z,11.37
2018-05-04T01:20:32.145Z,12.77
2018-05-04T01:22:59.126Z,10.40
2018-05-04T01:25:26.135Z,8.50
2018-05-04T01:27:53.217Z,7.60
2018-05-04T01:30:20.273Z,7.80
2018-05-04T01:32:47.315Z,10.77
2018-05-04T01:35:14.362Z,7.50
2018-05-04T01:37:41.417Z,8.17
2018-05-04T01:40:08.459Z,6.37
2018-05-04T01:42:35.507Z,12.10
2018-05-04T01:45:02.562Z,6.70
2018-05-04T01:47:29.609Z,13.23
2018-05-04T01:49:56.655Z,8.83
2018-05-04T01:52:23.708Z,10.53
2018-05-04T01:54:50.755Z,10.60
2018-05-04T01:57:17.799Z,11.50
2018-05-04T01:59:44.853Z,6.77
2018-05-04T02:02:11.898Z,9.30
2018-05-04T02:04:38.945Z,9.27
2018-05-04T02:07:06.001Z,8.67
2018-05-04T02:09:33.044Z,8.10
2018-05-04T02:12:00.092Z,5.63
2018-05-04T02:14:27.858Z,6.67
2018-05-04T02:17:00.577Z,7.40
2018-05-04T02:19:27.689Z,11.50
2018-05-04T02:21:54.743Z,6.90
2018-05-04T02:24:21.799Z,8.53
2018-05-04T02:26:48.835Z,8.17
2018-05-04T02:29:15.889Z,8.57
2018-05-04T02:31:43.240Z,8.33
2018-05-04T02:34:10.398Z,6.53
2018-05-04T02:36:37.440Z,10.37
2018-05-04T02:39:04.591Z,10.33
2018-05-04T02:41:31.643Z,6.27
2018-05-04T02:43:58.688Z,9.23
2018-05-04T02:46:25.696Z,8.33
2018-05-04T02:48:52.682Z,6.57
2018-05-04T02:51:19.730Z,8.57
2018-05-04T02:53:46.784Z,8.63
2018-05-04T02:56:13.793Z,5.20
2018-05-04T02:58:40.779Z,10.23
2018-05-04T03:01:07.822Z,9.03
2018-05-04T03:03:34.875Z,6.47
2018-05-04T03:06:01.925Z,5.70
2018-05-04T03:08:29.075Z,5.97
2018-05-04T03:10:56.119Z,6.50
2018-05-04T03:13:23.169Z,7.23
2018-05-04T03:15:50.182Z,9.70
2018-05-04T03:18:17.373Z,5.70
2018-05-04T03:20:44.416Z,6.93
2018-05-04T03:23:12.656Z,4.23
2018-05-04T03:25:39.747Z,11.73
2018-05-04T03:28:06.791Z,10.10
2018-05-04T03:30:34.863Z,9.43
2018-05-04T03:33:01.815Z,6.57
2018-05-04T03:35:28.857Z,4.27
2018-05-04T03:37:56.731Z,7.13
2018-05-04T03:40:25.075Z,6.03
2018-05-04T03:42:52.174Z,11.17
2018-05-04T03:45:19.203Z,6.20
2018-05-04T03:47:47.134Z,11.23
2018-05-04T03:50:14.531Z,5.83
2018-05-04T03:52:42.503Z,6.00
2018-05-04T03:55:09.553Z,6.17
2018-05-04T03:57:43.666Z,4.30
2018-05-04T04:00:16.757Z,7.43
2018-05-04T04:02:49.805Z,10.03
2018-05-04T04:05:16.897Z,9.10
2018-05-04T04:07:43.959Z,9.87
2018-05-04T04:10:11.093Z,10.60
2018-05-04T04:12:38.182Z,10.10
2018-05-04T04:15:05.199Z,11.40
2018-05-04T04:17:32.239Z,11.00
2018-05-04T04:19:59.289Z,9.37
2018-05-04T04:22:26.340Z,10.30
2018-05-04T04:24:53.815Z,9.83
2018-05-04T04:27:20.841Z,8.50
2018-05-04T04:29:47.889Z,10.33
2018-05-04T04:32:15.864Z,11.40
2018-05-04T04:34:42.908Z,11.87
2018-05-04T04:37:09.956Z,10.43
2018-05-04T04:39:37.932Z,9.17
2018-05-04T04:42:04.975Z,11.63
2018-05-04T04:44:33.215Z,11.30
2018-05-04T04:47:00.199Z,10.00
2018-05-04T04:49:27.249Z,12.63
2018-05-04T04:51:54.303Z,8.00
2018-05-04T04:54:21.314Z,8.93
2018-05-04T04:56:48.398Z,10.17
2018-05-04T04:59:15.447Z,13.23
2018-05-04T05:01:42.491Z,12.27
2018-05-04T05:04:09.543Z,10.77
2018-05-04T05:06:37.410Z,11.90
2018-05-04T05:09:04.456Z,9.93
2018-05-04T05:11:31.509Z,9.00
2018-05-04T05:13:59.274Z,9.03
2018-05-04T05:16:26.318Z,9.70
2018-05-04T05:18:53.470Z,14.20
2018-05-04T05:21:21.510Z,10.77
2018-05-04T05:23:49.076Z,11.37
2018-05-04T05:26:16.049Z,13.07
2018-05-04T05:28:43.718Z,14.03
2018-05-04T05:33:52.150Z,11.27
2018-05-04T05:36:19.193Z,12.17
2018-05-04T05:38:46.550Z,18.73
2018-05-04T05:41:14.007Z,13.93
2018-05-04T05:43:41.063Z,18.97
2018-05-04T05:46:08.104Z,16.33
2018-05-04T05:48:35.157Z,17.63
2018-05-04T05:51:02.406Z,18.87
2018-05-04T05:53:29.454Z,15.53
2018-05-04T05:55:56.605Z,16.50
2018-05-04T05:58:23.660Z,19.70
2018-05-04T06:00:50.703Z,15.93
2018-05-04T06:03:18.673Z,17.30
2018-05-04T06:05:45.726Z,20.60
2018-05-04T06:08:15.044Z,21.37
2018-05-04T06:10:42.383Z,22.57
2018-05-04T06:13:09.427Z,23.73
2018-05-04T06:15:36.566Z,21.23
2018-05-04T06:18:03.730Z,29.63
2018-05-04T06:20:30.784Z,19.30
2018-05-04T06:22:57.828Z,22.00
2018-05-04T06:25:24.876Z,19.63
2018-05-04T06:27:51.929Z,27.87
2018-05-04T06:30:18.973Z,21.63
2018-05-04T06:32:47.297Z,17.70
2018-05-04T06:35:14.755Z,24.70
2018-05-04T06:37:42.129Z,23.13
2018-05-04T06:40:09.528Z,20.20
2018-05-04T06:42:36.570Z,22.23
2018-05-04T06:45:03.619Z,24.27
2018-05-04T06:47:31.385Z,21.77
2018-05-04T06:49:58.945Z,22.27
2018-05-04T06:52:25.994Z,20.87
2018-05-04T06:54:53.048Z,17.40
2018-05-04T06:57:20.091Z,19.80
2018-05-04T06:59:47.825Z,20.10
2018-05-04T07:02:14.909Z,25.70
2018-05-04T07:04:43.420Z,23.57
2018-05-04T07:07:10.440Z,25.17
2018-05-04T07:09:38.613Z,18.80
2018-05-04T07:12:06.891Z,15.27
2018-05-04T07:14:33.944Z,17.77
2018-05-04T07:17:00.986Z,22.47
2018-05-04T07:19:29.124Z,21.87
2018-05-04T07:21:56.212Z,18.27
2018-05-04T07:24:23.259Z,21.63
2018-05-04T07:26:51.541Z,17.60
2018-05-04T07:29:18.585Z,20.07
2018-05-04T07:31:45.735Z,20.50
2018-05-04T07:34:12.785Z,24.17
2018-05-04T07:36:39.837Z,21.53
2018-05-04T07:39:06.883Z,24.27
2018-05-04T07:41:33.929Z,21.23
2018-05-04T07:44:01.080Z,28.60
2018-05-04T07:46:28.235Z,25.87
2018-05-04T07:48:55.285Z,36.63
2018-05-04T07:51:22.328Z,28.47
2018-05-04T07:53:49.377Z,39.20
2018-05-04T07:56:16.535Z,24.37
2018-05-04T07:58:43.678Z,36.67
2018-05-04T08:01:10.734Z,28.07
2018-05-04T08:03:37.776Z,21.87
2018-05-04T08:06:04.825Z,18.37
2018-05-04T08:08:31.883Z,23.73
2018-05-04T08:10:59.031Z,30.77
2018-05-04T08:13:26.073Z,27.20
2018-05-04T08:15:53.121Z,25.23
2018-05-04T08:18:20.175Z,21.33
2018-05-04T08:20:47.731Z,24.17
2018-05-04T08:23:14.784Z,24.03
2018-05-04T08:25:41.833Z,19.00
2018-05-04T08:28:08.979Z,21.20
2018-05-04T08:30:36.028Z,33.50
2018-05-04T08:33:03.081Z,28.57
2018-05-04T08:35:30.191Z,26.43
2018-05-04T08:37:58.305Z,28.33
2018-05-04T08:40:25.348Z,21.70
2018-05-04T08:42:52.444Z,18.47
2018-05-04T08:45:19.450Z,19.60
2018-05-04T08:47:46.494Z,20.77
2018-05-04T08:50:13.542Z,25.77
2018-05-04T08:52:40.906Z,20.90
2018-05-04T08:55:07.950Z,23.47
2018-05-04T08:57:35.104Z,16.73
2018-05-04T09:00:02.147Z,20.80
2018-05-04T09:02:29.200Z,20.53
2018-05-04T09:04:56.351Z,22.97
2018-05-04T09:07:23.395Z,16.40
2018-05-04T09:09:50.442Z,20.30
2018-05-04T09:12:20.125Z,17.43
2018-05-04T09:14:47.202Z,13.33
2018-05-04T09:17:14.255Z,20.23
2018-05-04T09:19:41.300Z,12.77
2018-05-04T09:22:08.348Z,18.77
2018-05-04T09:24:35.402Z,18.87
2018-05-04T09:27:02.447Z,15.47
2018-05-04T09:29:29.494Z,16.47
2018-05-04T09:31:56.547Z,13.53
2018-05-04T09:34:24.820Z,17.90
2018-05-04T09:36:51.869Z,14.23
2018-05-04T09:39:19.758Z,14.07
2018-05-04T09:41:46.785Z,14.97
2018-05-04T09:44:13.839Z,10.70
2018-05-04T09:46:40.883Z,17.07
2018-05-04T09:49:08.419Z,15.40
2018-05-04T09:51:35.491Z,19.17
2018-05-04T09:54:02.540Z,15.47
2018-05-04T09:56:29.594Z,13.90
2018-05-04T09:58:57.563Z,15.23
2018-05-04T10:01:24.613Z,11.73
2018-05-04T10:03:51.761Z,15.00
2018-05-04T10:06:18.814Z,12.43
2018-05-04T10:08:45.865Z,16.77
2018-05-04T10:11:12.909Z,18.03
2018-05-04T10:13:40.326Z,11.40
2018-05-04T10:16:07.486Z,16.03
2018-05-04T10:18:34.571Z,11.50
2018-05-04T10:21:01.577Z,14.70
2018-05-04T10:23:28.660Z,18.03
2018-05-04T10:25:55.717Z,16.50
2018-05-04T10:28:22.866Z,13.17
2018-05-04T10:30:49.910Z,15.00
2018-05-04T10:33:16.957Z,12.50
2018-05-04T10:35:44.010Z,13.50
2018-05-04T10:38:11.065Z,13.83
2018-05-04T10:40:38.205Z,13.77
2018-05-04T10:43:05.252Z,10.55
2018-05-04T10:45:32.305Z,10.63
2018-05-04T10:47:59.350Z,11.63
2018-05-04T10:50:26.399Z,11.40
2018-05-04T10:52:53.452Z,10.20
2018-05-04T10:55:21.096Z,9.38
2018-05-04T10:57:48.158Z,8.43
2018-05-04T11:00:15.216Z,9.38
2018-05-04T11:02:42.413Z,8.60
2018-05-04T11:05:09.611Z,10.02
2018-05-04T11:07:36.665Z,9.30
2018-05-04T11:10:03.818Z,10.20
2018-05-04T11:12:30.968Z,9.23
2018-05-04T11:14:58.933Z,9.60
2018-05-04T11:17:25.982Z,5.40
2018-05-04T11:19:53.035Z,8.32
2018-05-04T11:22:20.078Z,9.00
2018-05-04T11:24:47.127Z,8.85
2018-05-04T11:27:14.184Z,11.07
2018-05-04T11:29:41.224Z,6.62
2018-05-04T11:32:09.296Z,8.25
2018-05-04T11:34:36.448Z,8.48
2018-05-04T11:37:03.496Z,11.73
2018-05-04T11:39:31.633Z,8.73
2018-05-04T11:41:58.821Z,7.50
2018-05-04T11:44:25.869Z,11.07
2018-05-04T11:46:53.845Z,9.10
2018-05-04T11:49:20.890Z,12.10
2018-05-04T11:51:49.271Z,11.05
2018-05-04T11:54:16.317Z,9.65
2018-05-04T11:56:43.372Z,9.02
2018-05-04T11:59:10.414Z,11.05
2018-05-04T12:01:37.462Z,9.95
2018-05-04T12:04:04.614Z,10.10
2018-05-04T12:06:31.668Z,11.02
2018-05-04T12:08:58.711Z,10.15
2018-05-04T12:11:25.970Z,7.12
2018-05-04T12:13:54.140Z,10.55
2018-05-04T12:16:23.006Z,7.40
2018-05-04T12:18:50.080Z,8.38
2018-05-04T12:21:17.647Z,10.38
2018-05-04T12:23:45.816Z,12.98
2018-05-04T12:26:12.871Z,12.05
2018-05-04T12:28:41.248Z,12.20
2018-05-04T12:31:08.292Z,10.98
2018-05-04T12:33:35.342Z,10.82
2018-05-04T12:36:03.317Z,13.93
2018-05-04T12:38:31.257Z,10.70
2018-05-04T12:40:58.331Z,14.35
2018-05-04T12:43:25.584Z,14.35
2018-05-04T12:45:52.709Z,12.25
2018-05-04T12:48:21.090Z,10.73
2018-05-04T12:50:48.135Z,17.10
2018-05-04T12:53:15.144Z,11.30
2018-05-04T12:55:42.340Z,11.18
2018-05-04T12:58:09.381Z,11.00
2018-05-04T13:00:36.947Z,10.93
2018-05-04T13:03:03.990Z,15.57
2018-05-04T13:05:31.039Z,11.65
2018-05-04T13:07:58.093Z,10.35
2018-05-04T13:10:25.136Z,3.00
2018-05-04T13:12:52.185Z,6.37
2018-05-04T13:15:19.240Z,3.62
2018-05-04T13:17:48.125Z,5.45
2018-05-04T13:20:15.174Z,12.88
2018-05-04T13:22:42.228Z,10.98
2018-05-04T13:25:09.273Z,9.88
2018-05-04T13:27:36.319Z,5.62
2018-05-04T13:30:03.372Z,13.35
2018-05-04T13:32:30.416Z,13.93
2018-05-04T13:34:57.771Z,10.75
2018-05-04T13:37:25.396Z,20.00
2018-05-04T13:39:52.791Z,12.73
2018-05-04T13:42:19.841Z,19.95
2018-05-04T13:44:46.895Z,11.93
2018-05-04T13:47:13.936Z,14.52
2018-05-04T13:49:40.985Z,16.33
2018-05-04T13:52:08.038Z,16.40
2018-05-04T13:54:35.081Z,15.10
2018-05-04T13:57:02.956Z,14.10
2018-05-04T13:59:29.999Z,15.68
2018-05-04T14:01:57.117Z,17.80
2018-05-04T14:04:24.607Z,19.23
2018-05-04T14:06:53.466Z,15.90
2018-05-04T14:09:20.650Z,22.35
2018-05-04T14:11:47.706Z,17.37
2018-05-04T14:14:14.751Z,23.75
2018-05-04T14:16:41.823Z,22.33
2018-05-04T14:19:08.851Z,22.35
2018-05-04T14:21:35.901Z,25.00
2018-05-04T14:24:02.941Z,28.10
2018-05-04T14:26:29.995Z,16.33
2018-05-04T14:28:57.150Z,18.50
2018-05-04T14:31:24.191Z,19.58
2018-05-04T14:33:51.757Z,12.07
2018-05-04T14:36:18.800Z,15.90
2018-05-04T14:38:45.848Z,17.50
2018-05-04T14:41:12.903Z,24.83
2018-05-04T14:43:39.946Z,21.83
2018-05-04T14:46:06.995Z,18.70
2018-05-04T14:48:34.049Z,16.13
2018-05-04T14:51:01.983Z,14.73
2018-05-04T14:53:29.061Z,22.47
2018-05-04T14:55:57.133Z,20.70
2018-05-04T14:58:24.200Z,24.83
2018-05-04T15:00:51.230Z,25.67
2018-05-04T15:03:18.383Z,28.10
2018-05-04T15:05:45.535Z,22.50
2018-05-04T15:08:12.583Z,26.67
2018-05-04T15:10:39.638Z,23.20
2018-05-04T15:13:06.679Z,21.43
2018-05-04T15:15:33.729Z,26.83
2018-05-04T15:18:00.962Z,20.10
2018-05-04T15:20:28.029Z,23.57
2018-05-04T15:22:55.085Z,18.23
2018-05-04T15:25:22.128Z,21.37
2018-05-04T15:27:49.177Z,18.90
2018-05-04T15:30:16.229Z,20.50
2018-05-04T15:32:43.380Z,17.90
2018-05-04T15:35:10.631Z,20.40
2018-05-04T15:37:37.685Z,19.90
2018-05-04T15:40:04.729Z,18.50
2018-05-04T15:42:32.394Z,17.67
2018-05-04T15:44:59.545Z,19.60
2018-05-04T15:47:26.902Z,20.17
2018-05-04T15:49:54.976Z,21.50
2018-05-04T15:52:22.087Z,20.13
2018-05-04T15:54:49.218Z,18.60
2018-05-04T15:57:17.062Z,12.47
2018-05-04T15:59:45.429Z,13.60
2018-05-04T16:02:12.465Z,17.47
2018-05-04T16:04:40.819Z,10.60
2018-05-04T16:07:07.892Z,13.40
2018-05-04T16:09:35.147Z,10.80
2018-05-04T16:12:02.298Z,9.57
2018-05-04T16:14:29.348Z,17.27
2018-05-04T16:16:56.402Z,14.67
2018-05-04T16:19:23.551Z,13.80
2018-05-04T16:21:52.221Z,15.63
2018-05-04T16:24:19.388Z,14.20
2018-05-04T16:26:46.432Z,17.13
2018-05-04T16:29:13.481Z,17.20
2018-05-04T16:31:40.749Z,12.07
2018-05-04T16:34:07.782Z,12.90
2018-05-04T16:36:35.958Z,15.27
2018-05-04T16:39:03.108Z,13.73
2018-05-04T16:41:30.260Z,13.73
2018-05-04T16:43:57.308Z,12.27
2018-05-04T16:46:30.296Z,14.03
2018-05-04T16:49:02.977Z,15.13
2018-05-04T16:51:30.030Z,15.23
2018-05-04T16:53:57.073Z,10.97
2018-05-04T16:56:24.122Z,15.40
2018-05-04T16:58:53.005Z,10.27
2018-05-04T17:01:20.063Z,11.93
2018-05-04T17:03:47.214Z,15.30
2018-05-04T17:06:14.263Z,14.93
2018-05-04T17:08:41.316Z,14.87
2018-05-04T17:11:11.431Z,13.07
2018-05-04T17:13:38.693Z,12.83
2018-05-04T17:16:05.737Z,11.07
2018-05-04T17:18:32.993Z,11.63
2018-05-04T17:21:01.372Z,14.43
2018-05-04T17:23:28.415Z,11.27
2018-05-04T17:25:56.598Z,12.73
2018-05-04T17:28:23.638Z,13.50
2018-05-04T17:30:50.686Z,12.93
2018-05-04T17:33:17.747Z,11.47
2018-05-04T17:35:45.507Z,9.53
2018-05-04T17:38:12.551Z,12.00
2018-05-04T17:40:39.599Z,11.50
2018-05-04T17:43:07.979Z,15.53
2018-05-04T17:45:36.117Z,8.50
2018-05-04T17:48:04.431Z,11.13
2018-05-04T17:50:31.488Z,12.13
2018-05-04T17:52:58.529Z,9.70
2018-05-04T17:55:25.987Z,9.07
2018-05-04T17:57:53.037Z,13.50
2018-05-04T18:00:20.187Z,9.97
2018-05-04T18:02:47.337Z,7.30
2018-05-04T18:05:15.677Z,10.73
2018-05-04T18:07:42.773Z,10.83
2018-05-04T18:10:11.869Z,10.73
2018-05-04T18:12:38.917Z,11.30
2018-05-04T18:15:05.959Z,10.67
2018-05-04T18:17:33.008Z,9.73
2018-05-04T18:20:00.063Z,14.30
2018-05-04T18:22:27.116Z,11.73
2018-05-04T18:24:54.257Z,6.67
2018-05-04T18:27:21.242Z,9.07
2018-05-04T18:29:49.480Z,10.60
2018-05-04T18:32:16.414Z,13.73
2018-05-04T18:34:44.813Z,9.87
2018-05-04T18:37:11.860Z,12.73
2018-05-04T18:39:39.520Z,8.87
2018-05-04T18:42:06.573Z,9.10
2018-05-04T18:44:33.619Z,9.17
2018-05-04T18:47:00.768Z,14.60
2018-05-04T18:49:27.818Z,10.47
2018-05-04T18:51:55.888Z,7.50
2018-05-04T18:54:22.962Z,11.87
2018-05-04T18:56:49.956Z,10.87
2018-05-04T18:59:17.955Z,12.27
2018-05-04T19:01:45.208Z,12.63
2018-05-04T19:04:12.563Z,8.77
2018-05-04T19:06:39.715Z,10.77
2018-05-04T19:09:06.773Z,7.87
2018-05-04T19:11:34.427Z,9.57
2018-05-04T19:14:01.580Z,7.13
2018-05-04T19:16:28.728Z,12.47
2018-05-04T19:18:56.494Z,9.80
2018-05-04T19:21:24.260Z,7.97
2018-05-04T19:23:51.308Z,9.67
2018-05-04T19:26:18.362Z,8.70
2018-05-04T19:28:45.512Z,12.80
2018-05-04T19:31:12.664Z,8.53
2018-05-04T19:33:39.708Z,6.37
2018-05-04T19:36:07.166Z,12.07
2018-05-04T19:38:34.317Z,19.23
2018-05-04T19:41:01.883Z,7.37
2018-05-04T19:43:29.341Z,11.70
2018-05-04T19:45:56.691Z,10.03
2018-05-04T19:48:23.740Z,10.00
2018-05-04T19:50:51.886Z,9.20
2018-05-04T19:53:18.964Z,10.33
2018-05-04T19:55:46.018Z,8.17
2018-05-04T19:58:13.170Z,6.27
2018-05-04T20:00:40.213Z,7.30
2018-05-04T20:03:07.260Z,9.50
2018-05-04T20:05:34.317Z,9.10
2018-05-04T20:08:01.359Z,16.73
2018-05-04T20:10:28.405Z,8.37
2018-05-04T20:12:55.459Z,7.53
2018-05-04T20:15:23.536Z,9.83
2018-05-04T20:17:50.580Z,11.13
2018-05-04T20:20:17.625Z,9.00
2018-05-04T20:22:44.678Z,6.83
2018-05-04T20:25:11.722Z,10.20
2018-05-04T20:27:38.770Z,7.23
2018-05-04T20:30:05.826Z,10.40
2018-05-04T20:32:33.072Z,8.93
2018-05-04T20:35:01.554Z,9.77
2018-05-04T20:37:29.935Z,8.83
2018-05-04T20:39:57.818Z,7.47
2018-05-04T20:42:24.957Z,9.20
2018-05-04T20:44:52.819Z,11.20
2018-05-04T20:47:19.875Z,7.57
2018-05-04T20:49:47.225Z,9.87
2018-05-04T20:52:14.483Z,8.40
2018-05-04T21:04:32.590Z,5.77
2018-05-04T21:07:02.625Z,13.07
2018-05-04T21:09:30.685Z,7.47
2018-05-04T21:11:57.727Z,10.17
2018-05-04T21:14:26.214Z,10.03
2018-05-04T21:16:54.660Z,9.77
2018-05-04T21:19:21.747Z,6.33
2018-05-04T21:21:54.015Z,10.50
2018-05-04T21:24:22.087Z,7.37
2018-05-04T21:26:49.750Z,9.10
2018-05-04T21:29:16.905Z,11.47
2018-05-04T21:31:43.957Z,8.93
2018-05-04T21:34:12.432Z,6.60
2018-05-04T21:36:40.197Z,7.87
2018-05-04T21:39:07.313Z,7.07
2018-05-04T21:41:34.601Z,6.80
2018-05-04T21:44:01.955Z,10.50
2018-05-04T21:46:29.014Z,12.50
2018-05-04T21:48:56.361Z,8.40
2018-05-04T21:51:23.515Z,7.50
2018-05-04T21:53:50.968Z,10.83
2018-05-04T21:56:18.841Z,11.30
2018-05-04T21:58:45.885Z,11.07
2018-05-04T22:01:13.037Z,11.40
2018-05-04T22:03:40.084Z,12.97
2018-05-04T22:06:07.143Z,9.73
2018-05-04T22:08:34.182Z,9.93
2018-05-04T22:11:01.332Z,11.03
2018-05-04T22:13:28.592Z,8.10
2018-05-04T22:15:56.621Z,10.50
2018-05-04T22:18:23.605Z,8.90
2018-05-04T22:20:50.757Z,7.40
2018-05-04T22:23:17.810Z,8.60
2018-05-04T22:25:44.854Z,7.50
2018-05-04T22:28:11.902Z,11.13
2018-05-04T22:30:38.957Z,11.83
2018-05-04T22:33:05.998Z,12.90
2018-05-04T22:35:33.057Z,12.10
2018-05-04T22:38:00.100Z,13.03
2018-05-04T22:40:27.144Z,10.47
2018-05-04T22:42:54.193Z,14.07
2018-05-04T22:45:21.246Z,13.23
2018-05-04T22:47:49.110Z,10.77
2018-05-04T22:50:16.122Z,11.43
2018-05-04T22:52:43.207Z,11.00
2018-05-04T22:55:10.253Z,11.67
2018-05-04T22:57:37.308Z,12.53
2018-05-04T23:00:04.352Z,11.10
2018-05-04T23:02:31.401Z,10.00
2018-05-04T23:04:58.454Z,12.97
2018-05-04T23:07:25.499Z,9.03
2018-05-04T23:09:52.545Z,10.63
2018-05-04T23:12:19.600Z,10.97
2018-05-04T23:14:46.645Z,12.33
2018-05-04T23:17:14.415Z,10.83
2018-05-04T23:19:41.458Z,10.77
2018-05-04T23:22:17.420Z,12.70
2018-05-04T23:24:44.464Z,12.97
2018-05-04T23:27:11.511Z,8.93
2018-05-04T23:29:38.664Z,14.87
2018-05-04T23:32:05.673Z,10.07
2018-05-04T23:34:32.830Z,11.63
2018-05-04T23:36:59.809Z,9.40
2018-05-04T23:39:27.061Z,14.93
2018-05-04T23:41:54.112Z,10.80
2018-05-04T23:44:21.261Z,13.17
2018-05-04T23:46:49.237Z,10.30
2018-05-04T23:49:16.655Z,13.13
2018-05-04T23:51:44.968Z,13.30
2018-05-04T23:54:12.121Z,12.40
2018-05-04T23:56:39.167Z,11.47
2018-05-04T23:59:06.222Z,10.63
